Warren, New York
Current Conditions -  °F | °C
As of 10:57 PM on Friday 28 Nov 2014 (Local Time) from KRME Reporting Station
Light Snow Light Snow  
Wind Chill: -6°   Ceiling: 2800
Heat Index: -6°   Visibility: 2.5mi
Dew Point: -7°   Wind: 3mph
Humidity: 92%   Direction: 120°ESE
Pressure: 30.24"   Gusts: NA
Location:  42.8523°N, 74.9958°W
Report Text: KRME 290357Z AUTO 12003KT 2 1/2SM -SN BR BKN028 OVC033 M06/M07 A3024 RMK AO2 P0000 T10561067 TSNO
Loading
Personal Weather Stations






























Interactive Weather Map New forecast layout! Learn more

10-Day Weather Forecast

Advertisements
Track Severe Weather on mobile